createdAt,value
2023-05-20T00:00:19.101Z,18.30
2023-05-20T00:02:47.157Z,18.32
2023-05-20T00:05:14.602Z,18.28
2023-05-20T00:07:42.066Z,18.16
2023-05-20T00:10:10.406Z,18.14
2023-05-20T00:12:41.239Z,18.23
2023-05-20T00:15:08.974Z,18.07
2023-05-20T00:17:36.671Z,18.15
2023-05-20T00:20:05.574Z,18.01
2023-05-20T00:22:32.918Z,18.21
2023-05-20T00:25:02.396Z,18.09
2023-05-20T00:27:29.724Z,17.89
2023-05-20T00:30:03.372Z,18.05
2023-05-20T00:32:31.140Z,17.85
2023-05-20T00:34:59.429Z,17.81
2023-05-20T00:37:27.454Z,17.82
2023-05-20T00:39:55.283Z,17.86
2023-05-20T00:42:26.951Z,17.87
2023-05-20T00:44:55.340Z,17.92
2023-05-20T00:47:24.365Z,17.82
2023-05-20T00:49:52.045Z,17.80
2023-05-20T00:52:19.851Z,17.82
2023-05-20T00:54:47.223Z,17.74
2023-05-20T00:57:14.841Z,17.76
2023-05-20T00:59:44.755Z,17.74
2023-05-20T01:02:14.467Z,17.72
2023-05-20T01:04:46.716Z,17.69
2023-05-20T01:07:15.535Z,17.56
2023-05-20T01:09:43.136Z,17.61
2023-05-20T01:12:29.996Z,17.55
2023-05-20T01:15:00.685Z,17.74
2023-05-20T01:17:33.211Z,17.58
2023-05-20T01:20:02.697Z,17.35
2023-05-20T01:22:31.636Z,17.43
2023-05-20T01:24:59.010Z,17.54
2023-05-20T01:27:27.007Z,17.53
2023-05-20T01:29:54.571Z,17.50
2023-05-20T01:32:27.154Z,17.33
2023-05-20T01:34:55.286Z,17.25
2023-05-20T01:37:22.552Z,17.20
2023-05-20T01:39:50.170Z,17.11
2023-05-20T01:42:18.905Z,17.28
2023-05-20T01:44:46.473Z,17.24
2023-05-20T01:47:14.290Z,17.04
2023-05-20T01:49:42.454Z,17.31
2023-05-20T01:52:12.304Z,17.14
2023-05-20T01:54:40.546Z,17.12
2023-05-20T01:57:08.975Z,17.21
2023-05-20T01:59:36.374Z,17.33
2023-05-20T02:02:04.626Z,17.30
2023-05-20T02:04:32.303Z,16.89
2023-05-20T02:07:00.771Z,17.01
2023-05-20T02:09:28.891Z,17.01
2023-05-20T02:11:57.158Z,17.09
2023-05-20T02:14:24.900Z,17.04
2023-05-20T02:16:52.529Z,17.09
2023-05-20T02:19:24.016Z,17.13
2023-05-20T02:21:52.210Z,17.27
2023-05-20T02:24:21.301Z,17.17
2023-05-20T02:26:51.288Z,17.23
2023-05-20T02:29:22.130Z,17.06
2023-05-20T02:31:50.317Z,17.03
2023-05-20T02:34:18.110Z,16.97
2023-05-20T02:36:46.107Z,17.02
2023-05-20T02:39:13.492Z,17.30
2023-05-20T02:41:40.966Z,17.30
2023-05-20T02:44:09.988Z,17.29
2023-05-20T02:46:37.399Z,17.49
2023-05-20T02:49:05.661Z,17.49
2023-05-20T02:51:34.044Z,17.49
2023-05-20T02:54:01.541Z,17.68
2023-05-20T02:56:30.359Z,17.82
2023-05-20T02:58:57.996Z,17.90
2023-05-20T03:01:25.969Z,17.97
2023-05-20T03:03:53.666Z,18.01
2023-05-20T03:06:22.639Z,18.01
2023-05-20T03:08:51.735Z,18.24
2023-05-20T03:11:20.161Z,18.23
2023-05-20T03:13:48.995Z,18.44
2023-05-20T03:16:16.966Z,18.33
2023-05-20T03:18:46.445Z,18.40
2023-05-20T03:21:14.476Z,18.43
2023-05-20T03:23:42.198Z,18.33
2023-05-20T03:26:09.635Z,18.12
2023-05-20T03:28:37.612Z,17.92
2023-05-20T03:31:06.849Z,18.31
2023-05-20T03:33:35.104Z,18.12
2023-05-20T03:36:04.202Z,18.33
2023-05-20T03:38:35.279Z,18.28
2023-05-20T03:41:05.472Z,18.40
2023-05-20T03:43:45.123Z,18.62
2023-05-20T03:46:13.414Z,18.85
2023-05-20T03:48:41.300Z,18.60
2023-05-20T03:51:08.750Z,18.50
2023-05-20T03:53:40.442Z,18.69
2023-05-20T03:56:08.317Z,18.87
2023-05-20T03:58:38.809Z,19.07
2023-05-20T04:01:07.413Z,18.63
2023-05-20T04:03:35.447Z,18.83
2023-05-20T04:06:04.412Z,19.02
2023-05-20T04:08:32.239Z,18.96
2023-05-20T04:11:00.231Z,19.08
2023-05-20T04:13:29.025Z,19.32
2023-05-20T04:15:58.717Z,18.95
2023-05-20T04:18:29.936Z,18.77
2023-05-20T04:20:57.393Z,19.10
2023-05-20T04:23:24.827Z,19.25
2023-05-20T04:25:52.908Z,19.25
2023-05-20T04:31:00.322Z,18.90
2023-05-20T04:33:28.113Z,19.36
2023-05-20T04:36:01.154Z,19.50
2023-05-20T04:38:30.681Z,19.48
2023-05-20T04:41:00.366Z,19.45
2023-05-20T04:43:31.369Z,19.64
2023-05-20T04:46:01.491Z,19.96
2023-05-20T04:48:49.878Z,19.71
2023-05-20T04:51:18.066Z,19.49
2023-05-20T04:53:47.147Z,19.67
2023-05-20T04:56:17.176Z,19.76
2023-05-20T04:58:53.071Z,19.79
2023-05-20T05:01:21.551Z,19.86
2023-05-20T05:03:51.092Z,19.72
2023-05-20T05:06:19.212Z,19.59
2023-05-20T05:08:47.385Z,20.14
2023-05-20T05:11:21.750Z,20.09
2023-05-20T05:13:49.617Z,20.31
2023-05-20T05:16:19.102Z,20.17
2023-05-20T05:18:47.471Z,19.96
2023-05-20T05:23:53.089Z,20.07
2023-05-20T05:26:21.168Z,20.32
2023-05-20T05:32:40.607Z,20.60
2023-05-20T05:35:09.105Z,20.43
2023-05-20T05:37:42.156Z,20.63
2023-05-20T05:40:13.332Z,20.40
2023-05-20T05:42:42.232Z,20.30
2023-05-20T05:45:12.261Z,20.70
2023-05-20T05:47:46.388Z,21.19
2023-05-20T05:50:14.908Z,21.20
2023-05-20T05:52:44.416Z,21.55
2023-05-20T05:55:13.252Z,20.86
2023-05-20T05:57:45.499Z,20.95
2023-05-20T06:00:26.181Z,21.14
2023-05-20T06:02:56.505Z,21.07
2023-05-20T06:05:26.918Z,21.30
2023-05-20T06:07:56.907Z,21.40
2023-05-20T06:10:26.153Z,21.40
2023-05-20T06:16:10.914Z,21.66
2023-05-20T06:18:38.557Z,21.61
2023-05-20T06:21:07.377Z,21.92
2023-05-20T06:23:45.322Z,21.05
2023-05-20T06:26:15.019Z,21.88
2023-05-20T06:29:07.220Z,21.78
2023-05-20T06:31:37.244Z,21.97
2023-05-20T06:34:13.254Z,22.07
2023-05-20T06:36:44.481Z,21.94
2023-05-20T06:39:17.082Z,21.37
2023-05-20T06:42:06.116Z,21.56
2023-05-20T06:45:13.144Z,21.97
2023-05-20T06:48:17.099Z,22.45
2023-05-20T06:50:52.264Z,22.29
2023-05-20T06:53:35.580Z,22.32
2023-05-20T06:56:33.593Z,22.68
2023-05-20T06:59:14.215Z,22.77
2023-05-20T07:02:24.378Z,22.40
2023-05-20T07:05:04.636Z,22.65
2023-05-20T07:07:45.178Z,23.21
2023-05-20T07:10:38.364Z,23.24
2023-05-20T07:13:44.542Z,22.87
2023-05-20T07:16:42.072Z,23.14
2023-05-20T07:19:36.957Z,23.21
2023-05-20T07:22:16.816Z,23.65
2023-05-20T07:25:08.386Z,23.38
2023-05-20T07:27:46.374Z,23.24
2023-05-20T07:30:18.372Z,23.22
2023-05-20T07:32:48.053Z,22.96
2023-05-20T07:35:39.185Z,23.20
2023-05-20T07:39:01.001Z,23.21
2023-05-20T07:41:33.073Z,23.58
2023-05-20T07:44:26.850Z,23.96
2023-05-20T07:47:42.361Z,23.72
2023-05-20T07:50:14.391Z,24.22
2023-05-20T07:52:56.080Z,24.10
2023-05-20T07:55:27.250Z,24.47
2023-05-20T07:57:58.294Z,24.08
2023-05-20T08:00:30.194Z,24.23
2023-05-20T08:03:08.613Z,24.02
2023-05-20T08:06:04.542Z,24.27
2023-05-20T08:08:58.203Z,24.51
2023-05-20T08:11:28.067Z,24.64
2023-05-20T08:14:32.354Z,24.36
2023-05-20T08:17:17.270Z,24.42
2023-05-20T08:20:09.131Z,24.44
2023-05-20T08:23:01.114Z,24.45
2023-05-20T08:25:53.100Z,24.46
2023-05-20T08:28:33.561Z,24.62
2023-05-20T08:31:14.962Z,24.63
2023-05-20T08:33:58.901Z,25.04
2023-05-20T08:36:28.155Z,24.88
2023-05-20T08:39:16.733Z,24.63
2023-05-20T08:42:26.164Z,24.72
2023-05-20T08:45:15.280Z,24.57
2023-05-20T08:48:46.141Z,24.59
2023-05-20T08:51:15.922Z,24.87
2023-05-20T08:54:13.315Z,24.73
2023-05-20T08:57:00.740Z,25.13
2023-05-20T08:59:33.939Z,24.83
2023-05-20T09:02:04.504Z,24.81
2023-05-20T09:04:36.193Z,25.39
2023-05-20T09:07:19.270Z,25.54
2023-05-20T09:09:49.159Z,25.49
2023-05-20T09:12:20.458Z,25.37
2023-05-20T09:14:48.640Z,25.29
2023-05-20T09:17:24.276Z,25.24
2023-05-20T09:19:55.218Z,25.69
2023-05-20T09:22:28.193Z,26.27
2023-05-20T09:24:58.964Z,25.73
2023-05-20T09:27:31.211Z,26.21
2023-05-20T09:30:00.216Z,26.10
2023-05-20T09:32:29.864Z,26.15
2023-05-20T09:35:01.508Z,25.93
2023-05-20T09:37:31.364Z,26.54
2023-05-20T09:40:04.107Z,26.84
2023-05-20T09:43:00.146Z,26.98
2023-05-20T09:45:55.568Z,26.50
2023-05-20T09:48:38.280Z,26.26
2023-05-20T09:51:34.566Z,26.74
2023-05-20T09:54:20.844Z,26.83
2023-05-20T09:57:17.970Z,26.85
2023-05-20T09:59:57.315Z,26.80
2023-05-20T10:02:27.458Z,26.87
2023-05-20T10:06:03.149Z,26.51
2023-05-20T10:12:48.372Z,26.73
2023-05-20T10:15:28.206Z,26.69
2023-05-20T10:18:28.321Z,26.99
2023-05-20T10:21:01.529Z,26.92
2023-05-20T10:24:06.398Z,27.00
2023-05-20T10:26:38.483Z,27.27
2023-05-20T10:29:27.171Z,27.77
2023-05-20T10:32:31.566Z,27.65
2023-05-20T10:35:24.294Z,27.40
2023-05-20T10:38:09.347Z,27.89
2023-05-20T10:40:47.513Z,27.89
2023-05-20T10:43:36.487Z,27.75
2023-05-20T10:46:53.772Z,27.81
2023-05-20T10:49:27.726Z,27.73
2023-05-20T10:52:09.266Z,28.30
2023-05-20T10:54:51.490Z,27.96
2023-05-20T10:57:44.107Z,27.49
2023-05-20T11:00:28.401Z,27.57
2023-05-20T11:04:16.834Z,27.86
2023-05-20T11:07:01.259Z,28.04
2023-05-20T11:09:40.623Z,28.28
2023-05-20T11:12:29.585Z,28.88
2023-05-20T11:15:00.491Z,28.62
2023-05-20T11:17:55.291Z,28.41
2023-05-20T11:20:26.257Z,28.54
2023-05-20T11:22:59.493Z,28.49
2023-05-20T11:25:40.676Z,28.36
2023-05-20T11:32:43.477Z,28.92
2023-05-20T11:35:37.734Z,28.40
2023-05-20T11:38:20.070Z,28.37
2023-05-20T11:40:59.644Z,28.94
2023-05-20T11:43:35.253Z,29.26
2023-05-20T11:46:05.590Z,29.22
2023-05-20T11:48:35.354Z,28.71
2023-05-20T11:51:06.240Z,28.87
2023-05-20T11:53:37.282Z,29.06
2023-05-20T11:56:10.448Z,28.90
2023-05-20T11:58:46.465Z,28.60
2023-05-20T12:03:50.392Z,29.29
2023-05-20T12:06:20.938Z,29.14
2023-05-20T12:08:51.323Z,28.75
2023-05-20T12:11:56.037Z,28.76
2023-05-20T12:14:28.559Z,28.72
2023-05-20T12:16:57.805Z,28.53
2023-05-20T12:19:26.989Z,28.15
2023-05-20T12:21:55.165Z,28.57
2023-05-20T12:24:22.903Z,28.99
2023-05-20T12:27:00.386Z,28.38
2023-05-20T12:29:29.370Z,28.88
2023-05-20T12:31:57.389Z,28.87
2023-05-20T12:34:25.870Z,29.37
2023-05-20T12:36:55.422Z,29.13
2023-05-20T12:39:26.384Z,29.10
2023-05-20T12:41:56.737Z,28.36
2023-05-20T12:44:34.303Z,28.70
2023-05-20T12:47:03.156Z,28.58
2023-05-20T12:49:32.412Z,28.99
2023-05-20T12:52:12.086Z,28.83
2023-05-20T12:54:48.931Z,28.72
2023-05-20T12:57:19.134Z,28.59
2023-05-20T12:59:48.652Z,28.73
2023-05-20T13:02:16.543Z,28.76
2023-05-20T13:04:46.252Z,29.13
2023-05-20T13:07:23.769Z,28.85
2023-05-20T13:09:51.582Z,29.08
2023-05-20T13:12:30.609Z,28.72
2023-05-20T13:15:26.482Z,28.78
2023-05-20T13:18:23.632Z,28.86
2023-05-20T13:21:09.472Z,28.97
2023-05-20T13:24:06.218Z,29.26
2023-05-20T13:27:02.631Z,28.74
2023-05-20T13:32:20.638Z,29.05
2023-05-20T13:35:17.286Z,28.61
2023-05-20T13:38:02.296Z,28.53
2023-05-20T13:41:00.330Z,28.97
2023-05-20T13:43:48.691Z,28.26
2023-05-20T13:46:42.375Z,28.16
2023-05-20T13:49:10.265Z,27.83
2023-05-20T13:52:00.116Z,28.42
2023-05-20T13:55:16.225Z,28.00
2023-05-20T13:58:18.503Z,27.94
2023-05-20T14:01:02.190Z,28.06
2023-05-20T14:03:44.547Z,28.22
2023-05-20T14:06:46.949Z,28.15
2023-05-20T14:09:29.460Z,28.66
2023-05-20T14:12:12.607Z,29.05
2023-05-20T14:14:55.111Z,28.84
2023-05-20T14:17:45.499Z,28.22
2023-05-20T14:20:27.527Z,28.32
2023-05-20T14:23:10.745Z,28.39
2023-05-20T14:26:03.707Z,28.21
2023-05-20T14:28:46.341Z,28.05
2023-05-20T14:31:47.270Z,28.40
2023-05-20T14:34:30.813Z,27.98
2023-05-20T14:37:19.689Z,27.77
2023-05-20T14:40:02.356Z,28.30
2023-05-20T14:42:44.139Z,27.59
2023-05-20T14:45:40.288Z,28.09
2023-05-20T14:48:22.122Z,28.40
2023-05-20T14:51:13.124Z,28.27
2023-05-20T14:53:53.102Z,28.39
2023-05-20T14:56:23.278Z,27.94
2023-05-20T14:58:51.147Z,28.16
2023-05-20T15:01:19.590Z,28.07
2023-05-20T15:03:49.444Z,27.96
2023-05-20T15:06:22.285Z,27.70
2023-05-20T15:08:50.258Z,27.54
2023-05-20T15:11:19.095Z,27.29
2023-05-20T15:13:48.431Z,27.67
2023-05-20T15:16:19.569Z,27.65
2023-05-20T15:18:47.238Z,27.84
2023-05-20T15:21:18.370Z,27.66
2023-05-20T15:23:46.952Z,28.20
2023-05-20T15:26:15.440Z,27.94
2023-05-20T15:28:47.503Z,28.09
2023-05-20T15:31:15.580Z,27.82
2023-05-20T15:33:45.562Z,27.83
2023-05-20T15:36:14.736Z,27.84
2023-05-20T15:38:48.667Z,27.88
2023-05-20T15:41:26.481Z,27.81
2023-05-20T15:44:00.261Z,27.60
2023-05-20T15:46:32.313Z,27.54
2023-05-20T15:49:08.306Z,27.51
2023-05-20T15:51:37.270Z,28.10
2023-05-20T15:54:13.910Z,27.99
2023-05-20T15:56:51.327Z,27.79
2023-05-20T15:59:19.279Z,27.49
2023-05-20T16:01:50.591Z,27.29
2023-05-20T16:04:19.641Z,28.12
2023-05-20T16:06:48.247Z,27.84
2023-05-20T16:09:16.312Z,27.30
2023-05-20T16:11:46.328Z,27.57
2023-05-20T16:14:22.290Z,27.45
2023-05-20T16:16:54.308Z,27.93
2023-05-20T16:19:22.087Z,27.81
2023-05-20T16:21:51.385Z,27.51
2023-05-20T16:24:22.501Z,27.22
2023-05-20T16:26:52.300Z,27.35
2023-05-20T16:29:21.823Z,27.55
2023-05-20T16:31:50.367Z,27.71
2023-05-20T16:34:25.462Z,27.90
2023-05-20T16:36:55.617Z,27.89
2023-05-20T16:39:27.255Z,27.55
2023-05-20T16:41:57.481Z,27.60
2023-05-20T16:44:26.680Z,27.24
2023-05-20T16:46:59.454Z,27.56
2023-05-20T16:49:30.663Z,27.19
2023-05-20T16:51:58.901Z,26.80
2023-05-20T16:54:28.353Z,26.71
2023-05-20T16:56:56.690Z,26.83
2023-05-20T16:59:29.023Z,27.19
2023-05-20T17:01:57.987Z,27.01
2023-05-20T17:04:27.479Z,27.09
2023-05-20T17:07:07.617Z,27.09
2023-05-20T17:09:39.935Z,26.90
2023-05-20T17:12:07.907Z,26.71
2023-05-20T17:14:37.100Z,26.97
2023-05-20T17:17:15.419Z,26.92
2023-05-20T17:19:47.689Z,26.81
2023-05-20T17:22:19.780Z,26.83
2023-05-20T17:24:49.526Z,26.96
2023-05-20T17:27:20.302Z,27.14
2023-05-20T17:29:49.350Z,27.01
2023-05-20T17:32:21.741Z,26.98
2023-05-20T17:34:50.011Z,27.09
2023-05-20T17:37:20.301Z,26.90
2023-05-20T17:39:51.650Z,26.95
2023-05-20T17:42:27.561Z,26.85
2023-05-20T17:44:58.240Z,26.86
2023-05-20T17:47:26.165Z,27.14
2023-05-20T17:49:56.375Z,26.87
2023-05-20T17:52:30.541Z,26.64
2023-05-20T17:55:01.247Z,26.95
2023-05-20T17:57:38.574Z,26.96
2023-05-20T18:00:10.222Z,27.06
2023-05-20T18:02:48.424Z,26.71
2023-05-20T18:05:19.554Z,26.74
2023-05-20T18:07:50.278Z,26.76
2023-05-20T18:12:58.216Z,26.57
2023-05-20T18:15:25.848Z,26.45
2023-05-20T18:17:54.440Z,26.50
2023-05-20T18:20:22.751Z,26.49
2023-05-20T18:22:58.512Z,26.41
2023-05-20T18:25:34.424Z,26.35
2023-05-20T18:30:39.339Z,26.28
2023-05-20T18:33:15.852Z,26.03
2023-05-20T18:35:44.639Z,25.87
2023-05-20T18:38:12.483Z,25.86
2023-05-20T18:40:41.321Z,25.63
2023-05-20T18:43:09.350Z,25.33
2023-05-20T18:45:41.777Z,25.25
2023-05-20T18:48:26.053Z,25.18
2023-05-20T18:51:13.177Z,25.06
2023-05-20T18:53:47.506Z,25.00
2023-05-20T18:56:20.399Z,24.78
2023-05-20T18:58:48.793Z,24.76
2023-05-20T19:01:26.395Z,24.70
2023-05-20T19:04:08.580Z,24.42
2023-05-20T19:06:37.697Z,24.22
2023-05-20T19:09:09.804Z,24.08
2023-05-20T19:11:47.312Z,24.20
2023-05-20T19:14:21.417Z,24.05
2023-05-20T19:16:56.503Z,23.63
2023-05-20T19:19:28.096Z,23.63
2023-05-20T19:22:11.312Z,23.62
2023-05-20T19:27:37.251Z,23.39
2023-05-20T19:30:12.701Z,23.21
2023-05-20T19:32:43.376Z,23.13
2023-05-20T19:35:27.340Z,23.17
2023-05-20T19:38:00.366Z,22.99
2023-05-20T19:40:33.486Z,23.08
2023-05-20T19:43:07.987Z,22.94
2023-05-20T19:45:43.496Z,22.94
2023-05-20T19:48:12.374Z,22.82
2023-05-20T19:50:42.240Z,22.71
2023-05-20T19:53:12.288Z,22.60
2023-05-20T19:55:44.830Z,22.57
2023-05-20T19:58:33.202Z,22.40
2023-05-20T20:01:02.323Z,22.27
2023-05-20T20:03:34.325Z,22.13
2023-05-20T20:06:05.812Z,22.14
2023-05-20T20:08:40.408Z,22.21
2023-05-20T20:11:13.569Z,22.05
2023-05-20T20:13:44.318Z,22.05
2023-05-20T20:18:51.513Z,21.81
2023-05-20T20:21:25.873Z,21.83
2023-05-20T20:23:58.009Z,21.68
2023-05-20T20:26:32.382Z,21.65
2023-05-20T20:29:03.670Z,21.82
2023-05-20T20:31:39.893Z,21.51
2023-05-20T20:34:15.525Z,21.57
2023-05-20T20:36:47.402Z,21.43
2023-05-20T20:39:19.634Z,21.60
2023-05-20T20:41:50.403Z,21.81
2023-05-20T20:44:23.498Z,21.92
2023-05-20T20:46:53.418Z,21.98
2023-05-20T20:49:24.772Z,22.15
2023-05-20T20:51:58.349Z,22.15
2023-05-20T20:54:33.339Z,22.16
2023-05-20T20:57:02.891Z,22.09
2023-05-20T20:59:31.882Z,21.96
2023-05-20T21:02:00.580Z,22.06
2023-05-20T21:04:39.772Z,22.21
2023-05-20T21:07:07.731Z,22.35
2023-05-20T21:09:35.934Z,22.48
2023-05-20T21:12:07.305Z,22.61
2023-05-20T21:14:36.637Z,22.56
2023-05-20T21:17:09.369Z,22.71
2023-05-20T21:19:39.704Z,22.48
2023-05-20T21:22:08.575Z,22.86
2023-05-20T21:24:37.001Z,22.77
2023-05-20T21:27:07.382Z,22.35
2023-05-20T21:29:35.533Z,22.39
2023-05-20T21:32:07.325Z,22.44
2023-05-20T21:34:36.429Z,22.15
2023-05-20T21:37:04.968Z,22.35
2023-05-20T21:39:34.759Z,22.44
2023-05-20T21:42:02.394Z,22.34
2023-05-20T21:44:30.478Z,22.38
2023-05-20T21:46:58.356Z,22.47
2023-05-20T21:49:27.218Z,22.61
2023-05-20T21:51:55.072Z,22.69
2023-05-20T21:54:25.268Z,22.79
2023-05-20T21:56:53.364Z,22.79
2023-05-20T21:59:21.285Z,22.93
2023-05-20T22:01:50.922Z,22.91
2023-05-20T22:04:19.177Z,22.72
2023-05-20T22:06:47.115Z,22.63
2023-05-20T22:09:17.020Z,22.56
2023-05-20T22:11:45.551Z,22.74
2023-05-20T22:14:16.348Z,22.68
2023-05-20T22:16:48.602Z,22.51
2023-05-20T22:19:17.368Z,22.46
2023-05-20T22:21:50.583Z,22.67
2023-05-20T22:24:18.995Z,22.59
2023-05-20T22:26:46.469Z,22.40
2023-05-20T22:29:14.320Z,22.44
2023-05-20T22:31:42.466Z,22.17
2023-05-20T22:34:10.763Z,22.72
2023-05-20T22:36:40.395Z,22.56
2023-05-20T22:39:12.753Z,22.49
2023-05-20T22:41:40.130Z,22.36
2023-05-20T22:44:07.834Z,22.33
2023-05-20T22:46:35.832Z,22.36
2023-05-20T22:49:05.798Z,22.41
2023-05-20T22:51:35.412Z,22.31
2023-05-20T22:54:04.147Z,22.28
2023-05-20T22:56:32.770Z,22.41
2023-05-20T22:59:00.515Z,22.47
2023-05-20T23:01:28.525Z,22.41
2023-05-20T23:03:56.048Z,22.87
2023-05-20T23:06:26.464Z,22.58
2023-05-20T23:08:54.262Z,22.20
2023-05-20T23:11:25.635Z,22.09
2023-05-20T23:13:53.481Z,22.18
2023-05-20T23:16:21.888Z,22.07
2023-05-20T23:18:49.515Z,22.19
2023-05-20T23:21:17.597Z,21.95
2023-05-20T23:23:46.160Z,22.28
2023-05-20T23:26:13.977Z,22.19
2023-05-20T23:28:41.929Z,22.53
2023-05-20T23:31:10.846Z,22.32
2023-05-20T23:33:38.687Z,21.99
2023-05-20T23:36:09.821Z,22.17
2023-05-20T23:38:38.019Z,21.91
2023-05-20T23:41:05.327Z,22.09
2023-05-20T23:43:33.246Z,22.23
2023-05-20T23:46:01.144Z,22.20
2023-05-20T23:48:31.159Z,22.07
2023-05-20T23:51:00.758Z,22.06
2023-05-20T23:53:29.309Z,21.91
2023-05-20T23:55:57.379Z,21.65
2023-05-20T23:58:24.722Z,21.55
